Latest Weather Observations for Dennes Point

IDT60901

Issued at 7:25 pm EDT Saturday 29 November 2014 (issued every 10 minutes, with the page automatically refreshed every 10 minutes)

About weather observations | Map of Hobart area stations | Latest observations for Hobart area | Other Formats
Station Details ID: 094255 Name: DENNES POINT Lat: -43.06 Lon: 147.36 Height: 5.67 m
Data from the previous 72 hours. | See also: Recent months at Dennes Point
Date/Time
EDT
Tmp

°C
App
Tmp
°C
Dew
Point
°C
Rel
Hum
%
Delta-T

°C
Wind Press
QNH
hPa
Press
MSL
hPa
Rain
since
9 am
mm
Dir
 
Spd
km/h
Gust
km/h
Spd
kts
Gust
kts
29/07:00pm 12.4 8.7 6.2 66 2.9 ESE 15 20 8 11 1019.2 1019.2 0.0
29/06:30pm 12.8 9.1 6.4 65 3.0 SE 15 24 8 13 1019.2 1019.2 0.0
29/06:00pm 12.9 8.4 6.0 63 3.2 ESE 19 26 10 14 1019.2 1019.2 0.0
29/05:30pm 13.0 8.5 6.1 63 3.3 ESE 19 28 10 15 1019.2 1019.2 0.0
29/05:00pm 13.3 8.6 6.2 62 3.4 ESE 20 26 11 14 1019.1 1019.1 0.0
29/04:30pm 13.6 8.9 6.2 61 3.5 ESE 20 28 11 15 1018.9 1018.9 0.0
29/04:00pm 13.9 9.3 6.5 61 3.5 ESE 20 28 11 15 1019.0 1019.0 0.0
29/03:30pm 14.2 9.5 6.1 58 3.9 ESE 20 24 11 13 1019.1 1019.1 0.0
29/03:00pm 14.0 9.3 6.1 59 3.8 ESE 20 26 11 14 1019.1 1019.1 0.0
29/02:30pm 14.7 10.7 6.8 59 3.8 ESE 17 20 9 11 1019.3 1019.3 0.0
29/02:00pm 14.4 10.7 6.5 59 3.8 ESE 15 19 8 10 1019.6 1019.6 0.0
29/01:30pm 13.8 9.8 6.7 62 3.4 ESE 17 20 9 11 1019.9 1019.9 0.0
29/01:00pm 13.6 10.0 6.7 63 3.3 ESE 15 20 8 11 1020.2 1020.2 0.0
29/12:30pm 13.5 9.9 6.8 64 3.2 ESE 15 20 8 11 1020.3 1020.3 0.0
29/12:00pm 12.7 9.2 7.0 68 2.7 ESE 15 20 8 11 1020.4 1020.4 0.0
29/11:30am 12.5 9.3 7.0 69 2.6 ESE 13 17 7 9 1020.5 1020.5 0.0
29/11:00am 12.6 9.9 7.5 71 2.5 ESE 11 17 6 9 1020.5 1020.5 0.0
29/10:30am 12.3 10.0 7.6 73 2.3 E 9 13 5 7 1020.7 1020.7 0.0
29/10:00am 12.0 9.0 7.9 76 2.0 ESE 13 17 7 9 1021.1 1021.1 0.0
29/09:30am 11.4 9.3 8.3 81 1.5 ESE 9 13 5 7 1021.2 1021.2 0.0
29/09:00am 11.7 10.0 7.4 75 2.1 S 6 11 3 6 1021.1 1021.1 0.0
29/08:30am 11.3 9.3 7.0 75 2.0 SSE 7 13 4 7 1020.9 1020.9 0.0
29/08:00am 11.5 9.5 7.2 75 2.1 S 7 11 4 6 1020.8 1020.8 0.0
29/07:30am 11.4 9.7 7.5 77 1.9 SSE 6 11 3 6 1020.6 1020.6 0.0
29/07:00am 11.2 9.2 7.3 77 1.9 S 7 13 4 7 1020.5 1020.5 0.0
29/06:30am 11.2 9.8 7.1 76 2.0 SSE 4 9 2 5 1020.4 1020.4 0.0
29/06:00am 11.1 9.1 7.0 76 1.9 S 7 15 4 8 1020.2 1020.2 0.0
29/05:30am 11.3 9.6 7.4 77 1.9 S 6 9 3 5 1020.1 1020.1 0.0
29/05:00am 11.3 10.5 8.0 80 1.6 S 2 7 1 4 1019.8 1019.8 0.0
29/04:30am 11.4 11.1 8.6 83 1.4 CALM 0 0 0 0 1019.7 1019.7 0.0
29/04:00am 11.4 9.0 8.8 84 1.3 SSW 11 15 6 8 1019.8 1019.8 0.0
29/03:30am 11.9 11.0 9.1 83 1.4 S 4 7 2 4 1020.1 1020.1 0.0
29/03:00am 12.3 10.8 9.3 82 1.5 S 7 11 4 6 1020.0 1020.0 0.0
29/02:30am 12.5 11.6 9.1 80 1.7 S 4 6 2 3 1020.1 1020.1 0.0
29/02:00am 12.7 11.1 8.6 76 2.0 S 7 9 4 5 1020.2 1020.2 0.0
29/01:30am 12.5 10.8 8.4 76 2.0 S 7 9 4 5 1020.3 1020.3 0.0
29/01:00am 13.2 12.1 8.3 72 2.4 NNW 4 6 2 3 1020.4 1020.4 0.0
29/12:30am 13.4 11.8 8.7 73 2.4 NNE 7 11 4 6 1020.5 1020.5 0.0
29/12:00am 13.3 11.3 8.6 73 2.3 NNE 9 11 5 6 1020.8 1020.8 0.0
 
Date/Time
EDT
Tmp

°C
App
Tmp
°C
Dew
Point
°C
Rel
Hum
%
Delta-T

°C
Wind Press
QNH
hPa
Press
MSL
hPa
Rain
since
9 am
mm
Dir
 
Spd
km/h
Gust
km/h
Spd
kts
Gust
kts
28/11:30pm 13.3 10.9 8.6 73 2.4 N 11 13 6 7 1020.9 1020.9 0.0
28/11:00pm 13.3 11.0 9.0 75 2.2 NNE 11 13 6 7 1021.2 1021.2 0.0
28/10:30pm 13.3 10.6 9.0 75 2.2 NNE 13 15 7 8 1021.3 1021.3 0.0
28/10:00pm 13.2 10.5 9.1 76 2.1 N 13 15 7 8 1021.4 1021.4 0.0
28/09:30pm 13.4 11.3 9.8 79 1.8 NE 11 13 6 7 1021.4 1021.4 0.0
28/09:00pm 13.8 11.8 10.2 79 1.9 NNE 11 15 6 8 1021.4 1021.4 0.0
28/08:30pm 14.1 13.4 10.1 77 2.1 NNE 4 6 2 3 1021.2 1021.2 0.0
28/08:00pm 14.5 13.9 10.3 76 2.2 NE 4 6 2 3 1021.1 1021.1 0.0
28/07:30pm 14.5 13.3 9.5 72 2.6 ENE 6 7 3 4 1021.0 1021.0 0.0
28/07:00pm 14.8 12.9 9.2 69 2.9 ESE 9 13 5 7 1020.8 1020.8 0.0
28/06:30pm 14.9 12.1 8.6 66 3.2 ESE 13 15 7 8 1020.8 1020.8 0.0
28/06:00pm 14.6 11.7 8.1 65 3.2 ESE 13 15 7 8 1020.9 1020.9 0.0
28/05:30pm 14.6 11.4 8.5 67 3.1 ESE 15 19 8 10 1021.1 1021.1 0.0
28/05:00pm 14.9 11.3 8.4 65 3.3 ESE 17 20 9 11 1021.0 1021.0 0.0
28/04:30pm 14.9 11.0 8.6 66 3.2 ESE 19 22 10 12 1020.9 1020.9 0.0
28/04:00pm 14.7 10.7 8.2 65 3.2 ESE 19 22 10 12 1021.0 1021.0 0.0
28/03:30pm 14.5 9.9 6.6 59 3.8 ESE 20 22 11 12 1021.0 1021.0 0.0
28/03:00pm 15.1 10.8 6.9 58 4.0 ESE 19 22 10 12 1021.2 1021.2 0.0
28/02:30pm 15.8 11.8 6.8 55 4.4 ESE 17 20 9 11 1021.3 1021.3 0.0
28/02:00pm 15.2 11.5 6.5 56 4.2 ESE 15 19 8 10 1021.6 1021.6 0.0
28/01:30pm 15.5 11.4 6.0 53 4.6 E 17 19 9 10 1021.8 1021.8 0.0
28/01:00pm 15.9 12.5 6.1 52 4.7 E 13 15 7 8 1021.9 1021.9 0.0
28/12:30pm 15.9 12.2 6.3 53 4.7 E 15 17 8 9 1022.1 1022.1 0.0
28/12:00pm 15.6 12.0 6.9 56 4.3 E 15 17 8 9 1022.4 1022.4 0.0
28/11:30am 16.1 13.2 4.5 46 5.4 WSW 9 13 5 7 1022.6 1022.6 0.0
28/11:00am 15.0 12.3 3.5 46 5.2 W 7 9 4 5 1022.9 1022.9 0.0
28/10:30am 14.8 11.9 4.5 50 4.8 W 9 13 5 7 1023.1 1023.1 0.0
28/10:00am 14.6 10.1 4.3 50 4.7 W 17 24 9 13 1023.3 1023.3 0.0
28/09:30am 14.7 10.5 3.8 48 5.0 W 15 19 8 10 1023.5 1023.5 0.0
28/09:00am 13.2 8.7 4.1 54 4.1 WSW 17 24 9 13 1023.8 1023.8 0.0
28/08:30am 12.2 8.1 4.2 58 3.6 WSW 15 26 8 14 1023.8 1023.8 0.0
28/08:00am 12.1 9.1 4.1 58 3.6 WSW 9 11 5 6 1023.7 1023.7 0.0
28/07:30am 12.0 8.2 4.0 58 3.6 W 13 15 7 8 1023.6 1023.6 0.0
28/07:00am 11.3 8.4 4.5 63 3.0 W 9 13 5 7 1023.5 1023.5 0.0
28/06:30am 11.0 7.7 4.7 65 2.8 W 11 15 6 8 1023.6 1023.6 0.0
28/06:00am 9.9 6.5 3.9 66 2.6 WNW 11 15 6 8 1023.4 1023.4 0.0
28/05:30am 10.2 6.4 4.1 66 2.7 W 13 19 7 10 1023.2 1023.2 0.0
28/05:00am 10.8 5.9 4.3 64 2.9 W 19 24 10 13 1023.0 1023.0 0.0
28/04:30am 11.1 6.3 4.6 64 2.9 W 19 26 10 14 1023.1 1023.1 0.0
28/04:00am 10.9 6.4 4.1 63 3.0 W 17 22 9 12 1023.0 1023.0 0.0
28/03:30am 10.4 6.9 3.7 63 2.9 SW 11 17 6 9 1022.9 1022.9 0.0
28/03:00am 10.9 6.7 3.9 62 3.1 WSW 15 19 8 10 1022.9 1022.9 0.0
28/02:30am 10.8 6.6 3.8 62 3.1 WSW 15 20 8 11 1023.1 1023.1 0.0
28/02:00am 10.6 6.8 3.9 63 2.9 WSW 13 17 7 9 1023.4 1023.4 0.0
28/01:30am 10.5 6.7 3.8 63 3.0 WSW 13 19 7 10 1023.6 1023.6 0.0
28/01:00am 9.7 7.3 5.1 73 2.1 WSW 7 15 4 8 1023.8 1023.8 0.0
28/12:30am 9.0 6.9 5.7 80 1.5 SSW 6 7 3 4 1024.0 1024.0 0.0
28/12:00am 8.4 5.9 5.0 79 1.5 SSW 7 9 4 5 1024.0 1024.0 0.0
 
Date/Time
EDT
Tmp

°C
App
Tmp
°C
Dew
Point
°C
Rel
Hum
%
Delta-T

°C
Wind Press
QNH
hPa
Press
MSL
hPa
Rain
since
9 am
mm
Dir
 
Spd
km/h
Gust
km/h
Spd
kts
Gust
kts
27/11:30pm 9.0 6.8 5.4 78 1.6 S 6 7 3 4 1024.2 1024.2 0.0
27/11:00pm 9.2 6.9 5.6 78 1.6 S 7 11 4 6 1024.2 1024.2 0.0
27/10:30pm 9.6 7.6 6.1 79 1.6 S 6 9 3 5 1024.3 1024.3 0.0
27/10:00pm 10.3 8.1 6.3 76 1.9 SSE 7 13 4 7 1024.6 1024.6 0.0
27/09:30pm 10.6 7.3 6.6 76 1.9 S 13 19 7 10 1024.1 1024.1 0.0
27/09:00pm 10.8 6.7 6.2 73 2.1 SSW 17 22 9 12 1023.7 1023.7 0.0
27/08:30pm 11.4 6.8 5.7 68 2.6 S 19 26 10 14 1023.8 1023.8 0.0
27/08:00pm 12.1 6.9 5.7 65 3.0 S 22 35 12 19 1023.4 1023.4 0.0
27/07:30pm 12.9 7.3 5.3 60 3.5 SSW 24 37 13 20 1023.2 1023.2 0.0
27/07:00pm 13.4 7.5 5.8 60 3.6 S 26 39 14 21 1023.2 1023.2 0.0
27/06:30pm 14.4 8.9 6.0 57 4.0 S 24 35 13 19 1023.0 1023.0 0.0
27/06:00pm 14.9 9.4 6.0 55 4.2 S 24 33 13 18 1022.9 1022.9 0.0
27/05:30pm 15.6 10.1 6.1 53 4.6 S 24 39 13 21 1022.9 1022.9 0.0
27/05:00pm 15.7 9.8 5.9 52 4.7 S 26 39 14 21 1023.0 1023.0 0.0
27/04:30pm 16.6 11.6 6.4 51 5.0 S 22 32 12 17 1023.1 1023.1 0.0
27/04:00pm 16.9 12.0 6.7 51 5.0 S 22 32 12 17 1023.1 1023.1 0.0
27/03:30pm 16.5 11.0 5.8 49 5.2 S 24 35 13 19 1023.2 1023.2 0.0
27/03:00pm 17.7 12.4 5.0 43 6.1 SW 22 32 12 17 1023.1 1023.1 0.0
27/02:30pm 18.4 13.6 4.9 41 6.5 SW 19 28 10 15 1023.2 1023.2 0.0
27/02:00pm 17.0 12.0 4.7 44 5.8 SSW 20 28 11 15 1023.2 1023.2 0.0
27/01:30pm 16.7 11.6 4.1 43 5.9 SW 20 30 11 16 1023.1 1023.1 0.0
27/01:00pm 16.9 12.4 4.3 43 5.9 SW 17 28 9 15 1023.2 1023.2 0.0
27/12:30pm 17.1 12.1 4.8 44 5.8 SW 20 28 11 15 1023.4 1023.4 0.0
27/12:00pm 16.1 10.3 4.5 46 5.4 SW 24 37 13 20 1023.4 1023.4 0.0
27/11:30am 16.5 11.5 3.6 42 6.0 SW 19 24 10 13 1023.5 1023.5 0.0
27/11:00am 15.1 10.5 3.9 47 5.1 SW 17 26 9 14 1023.7 1023.7 0.0
27/10:30am 13.7 8.3 4.6 54 4.2 SW 22 35 12 19 1023.8 1023.8 0.0
27/10:00am 13.3 7.8 4.2 54 4.1 WSW 22 28 12 15 1023.9 1023.9 0.0
27/09:30am 13.3 7.0 3.9 53 4.3 WSW 26 32 14 17 1023.8 1023.8 0.0
27/09:00am 13.1 7.5 3.7 53 4.2 WSW 22 33 12 18 1023.5 1023.5 0.6
27/08:30am 12.9 7.7 3.3 52 4.3 WSW 20 26 11 14 1023.3 1023.3 0.6
27/08:00am 12.2 7.3 3.9 57 3.7 WSW 19 28 10 15 1023.1 1023.1 0.6
27/07:30am 11.9 7.1 4.4 60 3.4 W 19 28 10 15 1023.0 1023.0 0.6
27/07:00am 11.4 6.6 4.4 62 3.1 WSW 19 24 10 13 1022.6 1022.6 0.6
27/06:30am 11.4 7.2 3.9 60 3.3 WSW 15 20 8 11 1022.3 1022.3 0.6
27/06:00am 11.0 6.5 4.0 62 3.1 WSW 17 20 9 11 1022.1 1022.1 0.6
27/05:30am 11.0 6.4 3.5 60 3.3 W 17 22 9 12 1021.6 1021.6 0.6
27/05:00am 10.7 5.7 3.5 61 3.1 WSW 19 26 10 14 1021.3 1021.3 0.6
27/04:30am 10.8 5.8 3.8 62 3.1 WSW 19 22 10 12 1021.0 1021.0 0.6
27/04:00am 10.9 5.8 4.1 63 3.0 W 20 24 11 13 1020.8 1020.8 0.6
27/03:30am 11.0 6.4 3.8 61 3.2 W 17 20 9 11 1020.7 1020.7 0.6
27/03:00am 11.0 6.7 3.3 59 3.4 W 15 20 8 11 1020.7 1020.7 0.6
27/02:30am 11.1 6.4 3.4 59 3.4 W 17 24 9 13 1020.8 1020.8 0.6
27/02:00am 11.2 6.7 4.0 61 3.2 WSW 17 28 9 15 1020.9 1020.9 0.6
27/01:30am 11.2 6.7 4.2 62 3.1 WSW 17 24 9 13 1020.9 1020.9 0.6
27/01:00am 11.4 6.6 4.8 64 3.0 W 19 22 10 12 1020.9 1020.9 0.6
27/12:30am 11.4 6.6 4.4 62 3.2 W 19 24 10 13 1021.0 1021.0 0.6
27/12:00am 11.5 7.5 4.7 63 3.1 W 15 20 8 11 1020.9 1020.9 0.6
 
Date/Time
EDT
Tmp

°C
App
Tmp
°C
Dew
Point
°C
Rel
Hum
%
Delta-T

°C
Wind Press
QNH
hPa
Press
MSL
hPa
Rain
since
9 am
mm
Dir
 
Spd
km/h
Gust
km/h
Spd
kts
Gust
kts
26/11:30pm 11.6 6.8 4.8 63 3.1 WSW 19 24 10 13 1020.7 1020.7 0.6
26/11:00pm 11.6 6.8 4.6 62 3.2 WSW 19 26 10 14 1020.7 1020.7 0.6
26/10:30pm 11.8 7.0 4.8 62 3.2 WSW 19 26 10 14 1020.6 1020.6 0.6
26/10:00pm 11.8 6.5 5.0 63 3.1 W 22 30 12 16 1020.4 1020.4 0.6
26/09:30pm 11.9 5.4 4.6 61 3.3 W 28 35 15 19 1020.0 1020.0 0.6
26/09:00pm 12.0 5.1 4.7 61 3.3 WSW 30 39 16 21 1019.4 1019.4 0.6
26/08:30pm 12.2 4.7 4.4 59 3.5 WSW 33 43 18 23 1019.1 1019.1 0.6
26/08:00pm 12.4 4.9 4.4 58 3.6 WSW 33 44 18 24 1018.7 1018.7 0.6
26/07:55pm 12.4 3.8 4.4 58 3.6 WSW 39 57 21 31 1018.6 1018.6 0.6
26/07:30pm 13.3 5.3 5.7 60 3.6 WSW 37 48 20 26 1018.5 1018.5 0.6

Latest Capital City Observations: Canberra | Sydney | Melbourne | Brisbane | Adelaide | Perth | Hobart | Darwin

Other Formats:

Comma delimited format used in spreadsheet applications
http://www.bom.gov.au/fwo/IDT60901/IDT60901.94988.axf

JavaScript Object Notation format (JSON) in row-major order
http://www.bom.gov.au/fwo/IDT60901/IDT60901.94988.json